sensor_id;sensor_type;location;lat;lon;timestamp;P1;durP1;ratioP1;P2;durP2;ratioP2
57573;SDS011;63722;48.858;21.906;2022-11-15T00:00:27;1.70;;;1.60;;
57573;SDS011;63722;48.858;21.906;2022-11-15T00:02:53;2.17;;;1.67;;
57573;SDS011;63722;48.858;21.906;2022-11-15T00:05:18;2.15;;;1.73;;
57573;SDS011;63722;48.858;21.906;2022-11-15T00:07:44;1.75;;;1.65;;
57573;SDS011;63722;48.858;21.906;2022-11-15T00:10:09;2.97;;;1.75;;
57573;SDS011;63722;48.858;21.906;2022-11-15T00:12:34;1.63;;;1.52;;
57573;SDS011;63722;48.858;21.906;2022-11-15T00:15:00;1.67;;;1.58;;
57573;SDS011;63722;48.858;21.906;2022-11-15T00:17:25;1.60;;;1.50;;
57573;SDS011;63722;48.858;21.906;2022-11-15T00:19:54;1.40;;;1.40;;
57573;SDS011;63722;48.858;21.906;2022-11-15T00:22:20;1.95;;;1.65;;
57573;SDS011;63722;48.858;21.906;2022-11-15T00:24:45;1.90;;;1.80;;
57573;SDS011;63722;48.858;21.906;2022-11-15T00:27:11;1.63;;;1.52;;
57573;SDS011;63722;48.858;21.906;2022-11-15T00:29:36;1.83;;;1.73;;
57573;SDS011;63722;48.858;21.906;2022-11-15T00:32:03;3.20;;;1.80;;
57573;SDS011;63722;48.858;21.906;2022-11-15T00:34:29;1.60;;;1.50;;
57573;SDS011;63722;48.858;21.906;2022-11-15T00:36:54;1.95;;;1.35;;
57573;SDS011;63722;48.858;21.906;2022-11-15T00:39:20;1.58;;;1.50;;
57573;SDS011;63722;48.858;21.906;2022-11-15T00:41:45;1.50;;;1.50;;
57573;SDS011;63722;48.858;21.906;2022-11-15T00:44:10;1.70;;;1.60;;
57573;SDS011;63722;48.858;21.906;2022-11-15T00:46:36;1.98;;;1.75;;
57573;SDS011;63722;48.858;21.906;2022-11-15T00:49:01;1.90;;;1.80;;
57573;SDS011;63722;48.858;21.906;2022-11-15T00:51:27;1.73;;;1.63;;
57573;SDS011;63722;48.858;21.906;2022-11-15T00:53:52;1.60;;;1.50;;
57573;SDS011;63722;48.858;21.906;2022-11-15T00:56:17;1.67;;;1.58;;
57573;SDS011;63722;48.858;21.906;2022-11-15T00:58:43;1.50;;;1.40;;
57573;SDS011;63722;48.858;21.906;2022-11-15T01:01:09;1.38;;;1.38;;
57573;SDS011;63722;48.858;21.906;2022-11-15T01:03:36;1.42;;;1.40;;
57573;SDS011;63722;48.858;21.906;2022-11-15T01:06:03;1.70;;;1.60;;
57573;SDS011;63722;48.858;21.906;2022-11-15T01:08:29;1.60;;;1.50;;
57573;SDS011;63722;48.858;21.906;2022-11-15T01:10:59;1.70;;;1.60;;
57573;SDS011;63722;48.858;21.906;2022-11-15T01:13:34;1.90;;;1.80;;
57573;SDS011;63722;48.858;21.906;2022-11-15T01:16:07;1.80;;;1.70;;
57573;SDS011;63722;48.858;21.906;2022-11-15T01:18:38;1.60;;;1.50;;
57573;SDS011;63722;48.858;21.906;2022-11-15T01:21:04;1.75;;;1.65;;
57573;SDS011;63722;48.858;21.906;2022-11-15T01:23:31;1.60;;;1.50;;
57573;SDS011;63722;48.858;21.906;2022-11-15T01:26:00;1.90;;;1.80;;
57573;SDS011;63722;48.858;21.906;2022-11-15T01:28:29;1.90;;;1.80;;
57573;SDS011;63722;48.858;21.906;2022-11-15T01:31:00;1.63;;;1.52;;
57573;SDS011;63722;48.858;21.906;2022-11-15T01:33:26;1.70;;;1.60;;
57573;SDS011;63722;48.858;21.906;2022-11-15T01:35:53;1.45;;;1.45;;
57573;SDS011;63722;48.858;21.906;2022-11-15T01:38:19;1.70;;;1.60;;
57573;SDS011;63722;48.858;21.906;2022-11-15T01:40:44;1.90;;;1.80;;
57573;SDS011;63722;48.858;21.906;2022-11-15T01:43:26;1.70;;;1.60;;
57573;SDS011;63722;48.858;21.906;2022-11-15T01:46:15;1.60;;;1.50;;
57573;SDS011;63722;48.858;21.906;2022-11-15T01:48:53;1.70;;;1.60;;
57573;SDS011;63722;48.858;21.906;2022-11-15T01:51:23;1.77;;;1.67;;
57573;SDS011;63722;48.858;21.906;2022-11-15T01:53:52;1.88;;;1.77;;
57573;SDS011;63722;48.858;21.906;2022-11-15T01:56:22;1.50;;;1.50;;
57573;SDS011;63722;48.858;21.906;2022-11-15T01:58:50;1.70;;;1.60;;
57573;SDS011;63722;48.858;21.906;2022-11-15T02:01:17;1.67;;;1.58;;
57573;SDS011;63722;48.858;21.906;2022-11-15T02:03:50;1.70;;;1.60;;
57573;SDS011;63722;48.858;21.906;2022-11-15T02:06:19;1.80;;;1.70;;
57573;SDS011;63722;48.858;21.906;2022-11-15T02:08:46;1.45;;;1.42;;
57573;SDS011;63722;48.858;21.906;2022-11-15T02:11:12;1.98;;;1.88;;
57573;SDS011;63722;48.858;21.906;2022-11-15T02:13:37;2.03;;;1.80;;
57573;SDS011;63722;48.858;21.906;2022-11-15T02:16:13;1.63;;;1.58;;
57573;SDS011;63722;48.858;21.906;2022-11-15T02:18:55;1.73;;;1.63;;
57573;SDS011;63722;48.858;21.906;2022-11-15T02:29:38;1.73;;;1.63;;
57573;SDS011;63722;48.858;21.906;2022-11-15T02:32:28;1.52;;;1.42;;
57573;SDS011;63722;48.858;21.906;2022-11-15T02:37:52;1.30;;;1.30;;
57573;SDS011;63722;48.858;21.906;2022-11-15T02:40:26;1.80;;;1.70;;
57573;SDS011;63722;48.858;21.906;2022-11-15T02:42:57;1.67;;;1.58;;
57573;SDS011;63722;48.858;21.906;2022-11-15T02:48:20;1.77;;;1.67;;
57573;SDS011;63722;48.858;21.906;2022-11-15T02:50:47;1.58;;;1.58;;
57573;SDS011;63722;48.858;21.906;2022-11-15T02:53:13;1.85;;;1.75;;
57573;SDS011;63722;48.858;21.906;2022-11-15T02:55:49;1.50;;;1.50;;
57573;SDS011;63722;48.858;21.906;2022-11-15T03:01:11;1.55;;;1.45;;
57573;SDS011;63722;48.858;21.906;2022-11-15T03:04:16;1.58;;;1.48;;
57573;SDS011;63722;48.858;21.906;2022-11-15T03:07:08;1.52;;;1.42;;
57573;SDS011;63722;48.858;21.906;2022-11-15T03:09:48;1.58;;;1.58;;
57573;SDS011;63722;48.858;21.906;2022-11-15T03:14:53;1.42;;;1.42;;
57573;SDS011;63722;48.858;21.906;2022-11-15T03:17:29;1.77;;;1.67;;
57573;SDS011;63722;48.858;21.906;2022-11-15T03:20:01;1.63;;;1.52;;
57573;SDS011;63722;48.858;21.906;2022-11-15T03:22:29;1.77;;;1.67;;
57573;SDS011;63722;48.858;21.906;2022-11-15T03:25:08;1.73;;;1.63;;
57573;SDS011;63722;48.858;21.906;2022-11-15T03:27:39;1.80;;;1.70;;
57573;SDS011;63722;48.858;21.906;2022-11-15T03:30:11;1.80;;;1.70;;
57573;SDS011;63722;48.858;21.906;2022-11-15T03:32:39;1.80;;;1.70;;
57573;SDS011;63722;48.858;21.906;2022-11-15T03:35:10;1.48;;;1.42;;
57573;SDS011;63722;48.858;21.906;2022-11-15T03:37:53;1.70;;;1.60;;
57573;SDS011;63722;48.858;21.906;2022-11-15T03:40:27;1.75;;;1.70;;
57573;SDS011;63722;48.858;21.906;2022-11-15T03:43:00;1.70;;;1.60;;
57573;SDS011;63722;48.858;21.906;2022-11-15T03:48:05;1.90;;;1.80;;
57573;SDS011;63722;48.858;21.906;2022-11-15T03:50:37;1.98;;;1.88;;
57573;SDS011;63722;48.858;21.906;2022-11-15T03:53:03;2.00;;;1.90;;
57573;SDS011;63722;48.858;21.906;2022-11-15T03:55:28;1.85;;;1.75;;
57573;SDS011;63722;48.858;21.906;2022-11-15T03:57:58;1.98;;;1.88;;
57573;SDS011;63722;48.858;21.906;2022-11-15T04:00:25;1.83;;;1.73;;
57573;SDS011;63722;48.858;21.906;2022-11-15T04:02:51;1.85;;;1.75;;
57573;SDS011;63722;48.858;21.906;2022-11-15T04:05:16;1.90;;;1.80;;
57573;SDS011;63722;48.858;21.906;2022-11-15T04:07:42;1.80;;;1.70;;
57573;SDS011;63722;48.858;21.906;2022-11-15T04:10:08;2.15;;;2.05;;
57573;SDS011;63722;48.858;21.906;2022-11-15T04:12:36;2.00;;;1.90;;
57573;SDS011;63722;48.858;21.906;2022-11-15T04:17:42;1.58;;;1.58;;
57573;SDS011;63722;48.858;21.906;2022-11-15T04:20:19;1.73;;;1.63;;
57573;SDS011;63722;48.858;21.906;2022-11-15T04:25:54;1.92;;;1.83;;
57573;SDS011;63722;48.858;21.906;2022-11-15T04:28:21;1.90;;;1.80;;
57573;SDS011;63722;48.858;21.906;2022-11-15T04:30:47;1.95;;;1.85;;
57573;SDS011;63722;48.858;21.906;2022-11-15T04:33:13;1.75;;;1.65;;
57573;SDS011;63722;48.858;21.906;2022-11-15T04:35:38;1.85;;;1.75;;
57573;SDS011;63722;48.858;21.906;2022-11-15T04:38:05;2.17;;;2.08;;
57573;SDS011;63722;48.858;21.906;2022-11-15T04:40:32;2.15;;;2.05;;
57573;SDS011;63722;48.858;21.906;2022-11-15T04:42:58;2.10;;;2.00;;
57573;SDS011;63722;48.858;21.906;2022-11-15T04:45:23;1.63;;;1.60;;
57573;SDS011;63722;48.858;21.906;2022-11-15T04:47:48;1.95;;;1.85;;
57573;SDS011;63722;48.858;21.906;2022-11-15T04:50:14;2.05;;;1.95;;
57573;SDS011;63722;48.858;21.906;2022-11-15T04:52:41;1.92;;;1.83;;
57573;SDS011;63722;48.858;21.906;2022-11-15T04:55:08;1.73;;;1.63;;
57573;SDS011;63722;48.858;21.906;2022-11-15T04:57:36;2.00;;;1.90;;
57573;SDS011;63722;48.858;21.906;2022-11-15T05:00:03;1.90;;;1.80;;
57573;SDS011;63722;48.858;21.906;2022-11-15T05:02:30;2.20;;;2.10;;
57573;SDS011;63722;48.858;21.906;2022-11-15T05:05:15;1.70;;;1.63;;
57573;SDS011;63722;48.858;21.906;2022-11-15T05:07:41;2.00;;;1.90;;
57573;SDS011;63722;48.858;21.906;2022-11-15T05:10:06;2.25;;;1.88;;
57573;SDS011;63722;48.858;21.906;2022-11-15T05:12:32;1.80;;;1.70;;
57573;SDS011;63722;48.858;21.906;2022-11-15T05:14:57;2.20;;;1.95;;
57573;SDS011;63722;48.858;21.906;2022-11-15T05:17:23;1.70;;;1.60;;
57573;SDS011;63722;48.858;21.906;2022-11-15T05:19:48;1.60;;;1.50;;
57573;SDS011;63722;48.858;21.906;2022-11-15T05:22:13;1.90;;;1.80;;
57573;SDS011;63722;48.858;21.906;2022-11-15T05:24:38;2.10;;;2.00;;
57573;SDS011;63722;48.858;21.906;2022-11-15T05:27:04;1.92;;;1.83;;
57573;SDS011;63722;48.858;21.906;2022-11-15T05:29:29;2.10;;;2.00;;
57573;SDS011;63722;48.858;21.906;2022-11-15T05:31:54;1.98;;;1.88;;
57573;SDS011;63722;48.858;21.906;2022-11-15T05:34:20;2.10;;;2.00;;
57573;SDS011;63722;48.858;21.906;2022-11-15T05:36:47;1.70;;;1.60;;
57573;SDS011;63722;48.858;21.906;2022-11-15T05:39:13;2.90;;;1.98;;
57573;SDS011;63722;48.858;21.906;2022-11-15T05:41:40;1.90;;;1.80;;
57573;SDS011;63722;48.858;21.906;2022-11-15T05:44:09;1.95;;;1.85;;
57573;SDS011;63722;48.858;21.906;2022-11-15T05:46:36;1.95;;;1.85;;
57573;SDS011;63722;48.858;21.906;2022-11-15T05:49:04;2.17;;;2.08;;
57573;SDS011;63722;48.858;21.906;2022-11-15T05:51:32;1.90;;;1.80;;
57573;SDS011;63722;48.858;21.906;2022-11-15T05:53:58;1.88;;;1.77;;
57573;SDS011;63722;48.858;21.906;2022-11-15T05:56:24;1.73;;;1.63;;
57573;SDS011;63722;48.858;21.906;2022-11-15T05:58:51;1.90;;;1.80;;
57573;SDS011;63722;48.858;21.906;2022-11-15T06:01:18;1.83;;;1.73;;
57573;SDS011;63722;48.858;21.906;2022-11-15T06:03:43;1.90;;;1.80;;
57573;SDS011;63722;48.858;21.906;2022-11-15T06:06:09;2.00;;;1.90;;
57573;SDS011;63722;48.858;21.906;2022-11-15T06:08:37;2.35;;;2.25;;
57573;SDS011;63722;48.858;21.906;2022-11-15T06:11:03;2.47;;;2.28;;
57573;SDS011;63722;48.858;21.906;2022-11-15T06:13:32;2.47;;;2.03;;
57573;SDS011;63722;48.858;21.906;2022-11-15T06:15:58;12.27;;;10.40;;
57573;SDS011;63722;48.858;21.906;2022-11-15T06:18:24;8.68;;;5.25;;
57573;SDS011;63722;48.858;21.906;2022-11-15T06:20:50;5.35;;;4.85;;
57573;SDS011;63722;48.858;21.906;2022-11-15T06:23:15;5.85;;;4.60;;
57573;SDS011;63722;48.858;21.906;2022-11-15T06:25:40;5.35;;;4.88;;
57573;SDS011;63722;48.858;21.906;2022-11-15T06:28:06;5.10;;;4.68;;
57573;SDS011;63722;48.858;21.906;2022-11-15T06:30:31;5.07;;;4.63;;
57573;SDS011;63722;48.858;21.906;2022-11-15T06:33:00;5.00;;;4.40;;
57573;SDS011;63722;48.858;21.906;2022-11-15T06:35:27;4.40;;;3.97;;
57573;SDS011;63722;48.858;21.906;2022-11-15T06:37:52;5.15;;;4.00;;
57573;SDS011;63722;48.858;21.906;2022-11-15T06:40:18;4.35;;;4.07;;
57573;SDS011;63722;48.858;21.906;2022-11-15T06:42:43;4.32;;;3.85;;
57573;SDS011;63722;48.858;21.906;2022-11-15T06:45:08;3.70;;;3.50;;
57573;SDS011;63722;48.858;21.906;2022-11-15T06:47:34;6.28;;;3.63;;
57573;SDS011;63722;48.858;21.906;2022-11-15T06:49:59;4.43;;;3.55;;
57573;SDS011;63722;48.858;21.906;2022-11-15T06:52:25;10.65;;;4.38;;
57573;SDS011;63722;48.858;21.906;2022-11-15T06:54:50;7.13;;;4.15;;
57573;SDS011;63722;48.858;21.906;2022-11-15T06:57:15;4.38;;;3.97;;
57573;SDS011;63722;48.858;21.906;2022-11-15T06:59:41;3.72;;;3.33;;
57573;SDS011;63722;48.858;21.906;2022-11-15T07:02:10;4.07;;;3.78;;
57573;SDS011;63722;48.858;21.906;2022-11-15T07:04:36;4.20;;;3.47;;
57573;SDS011;63722;48.858;21.906;2022-11-15T07:07:01;6.45;;;3.58;;
57573;SDS011;63722;48.858;21.906;2022-11-15T07:09:27;3.50;;;3.20;;
57573;SDS011;63722;48.858;21.906;2022-11-15T07:11:52;4.00;;;3.70;;
57573;SDS011;63722;48.858;21.906;2022-11-15T07:14:18;5.88;;;3.22;;
57573;SDS011;63722;48.858;21.906;2022-11-15T07:16:43;3.58;;;3.28;;
57573;SDS011;63722;48.858;21.906;2022-11-15T07:19:08;3.90;;;3.60;;
57573;SDS011;63722;48.858;21.906;2022-11-15T07:21:34;3.22;;;2.88;;
57573;SDS011;63722;48.858;21.906;2022-11-15T07:23:59;3.88;;;3.13;;
57573;SDS011;63722;48.858;21.906;2022-11-15T07:26:25;4.75;;;3.00;;
57573;SDS011;63722;48.858;21.906;2022-11-15T07:28:50;3.83;;;3.47;;
57573;SDS011;63722;48.858;21.906;2022-11-15T07:31:16;4.40;;;4.10;;
57573;SDS011;63722;48.858;21.906;2022-11-15T07:33:41;4.75;;;4.45;;
57573;SDS011;63722;48.858;21.906;2022-11-15T07:36:06;4.50;;;4.20;;
57573;SDS011;63722;48.858;21.906;2022-11-15T07:38:34;7.70;;;3.95;;
57573;SDS011;63722;48.858;21.906;2022-11-15T07:41:01;10.23;;;3.90;;
57573;SDS011;63722;48.858;21.906;2022-11-15T07:43:29;3.95;;;3.58;;
57573;SDS011;63722;48.858;21.906;2022-11-15T07:45:54;3.53;;;3.33;;
57573;SDS011;63722;48.858;21.906;2022-11-15T07:48:20;3.85;;;3.58;;
57573;SDS011;63722;48.858;21.906;2022-11-15T07:50:46;7.13;;;3.65;;
57573;SDS011;63722;48.858;21.906;2022-11-15T07:53:11;7.80;;;3.78;;
57573;SDS011;63722;48.858;21.906;2022-11-15T07:55:37;5.88;;;3.35;;
57573;SDS011;63722;48.858;21.906;2022-11-15T07:58:05;6.15;;;3.83;;
57573;SDS011;63722;48.858;21.906;2022-11-15T08:00:33;3.83;;;3.42;;
57573;SDS011;63722;48.858;21.906;2022-11-15T08:03:06;3.78;;;3.50;;
57573;SDS011;63722;48.858;21.906;2022-11-15T08:05:40;3.22;;;3.03;;
57573;SDS011;63722;48.858;21.906;2022-11-15T08:08:07;10.48;;;3.65;;
57573;SDS011;63722;48.858;21.906;2022-11-15T08:10:33;3.97;;;3.50;;
57573;SDS011;63722;48.858;21.906;2022-11-15T08:13:00;3.15;;;2.92;;
57573;SDS011;63722;48.858;21.906;2022-11-15T08:15:30;3.47;;;3.05;;
57573;SDS011;63722;48.858;21.906;2022-11-15T08:17:56;8.43;;;3.30;;
57573;SDS011;63722;48.858;21.906;2022-11-15T08:20:23;4.60;;;3.47;;
57573;SDS011;63722;48.858;21.906;2022-11-15T08:22:50;4.00;;;3.60;;
57573;SDS011;63722;48.858;21.906;2022-11-15T08:25:15;8.13;;;3.55;;
57573;SDS011;63722;48.858;21.906;2022-11-15T08:27:41;7.65;;;3.90;;
57573;SDS011;63722;48.858;21.906;2022-11-15T08:30:06;5.30;;;3.65;;
57573;SDS011;63722;48.858;21.906;2022-11-15T08:32:32;14.45;;;3.60;;
57573;SDS011;63722;48.858;21.906;2022-11-15T08:34:58;4.18;;;3.22;;
57573;SDS011;63722;48.858;21.906;2022-11-15T08:37:23;15.25;;;3.90;;
57573;SDS011;63722;48.858;21.906;2022-11-15T08:39:48;8.43;;;3.70;;
57573;SDS011;63722;48.858;21.906;2022-11-15T08:42:14;7.97;;;3.65;;
57573;SDS011;63722;48.858;21.906;2022-11-15T08:44:41;8.70;;;3.60;;
57573;SDS011;63722;48.858;21.906;2022-11-15T08:47:06;7.47;;;3.10;;
57573;SDS011;63722;48.858;21.906;2022-11-15T08:49:32;9.27;;;3.55;;
57573;SDS011;63722;48.858;21.906;2022-11-15T08:51:57;8.60;;;3.72;;
57573;SDS011;63722;48.858;21.906;2022-11-15T08:54:22;7.88;;;3.45;;
57573;SDS011;63722;48.858;21.906;2022-11-15T08:56:48;3.75;;;3.42;;
57573;SDS011;63722;48.858;21.906;2022-11-15T08:59:13;4.72;;;3.65;;
57573;SDS011;63722;48.858;21.906;2022-11-15T09:01:39;6.20;;;3.38;;
57573;SDS011;63722;48.858;21.906;2022-11-15T09:04:05;10.60;;;4.50;;
57573;SDS011;63722;48.858;21.906;2022-11-15T09:06:31;7.55;;;5.50;;
57573;SDS011;63722;48.858;21.906;2022-11-15T09:08:56;6.80;;;5.25;;
57573;SDS011;63722;48.858;21.906;2022-11-15T09:11:22;4.93;;;4.43;;
57573;SDS011;63722;48.858;21.906;2022-11-15T09:13:48;8.82;;;5.25;;
57573;SDS011;63722;48.858;21.906;2022-11-15T09:16:14;10.77;;;4.20;;
57573;SDS011;63722;48.858;21.906;2022-11-15T09:18:40;7.53;;;4.22;;
57573;SDS011;63722;48.858;21.906;2022-11-15T09:21:06;9.38;;;4.10;;
57573;SDS011;63722;48.858;21.906;2022-11-15T09:23:32;8.20;;;4.15;;
57573;SDS011;63722;48.858;21.906;2022-11-15T09:25:58;11.43;;;4.18;;
57573;SDS011;63722;48.858;21.906;2022-11-15T09:28:26;6.55;;;4.10;;
57573;SDS011;63722;48.858;21.906;2022-11-15T09:30:55;9.32;;;3.40;;
57573;SDS011;63722;48.858;21.906;2022-11-15T09:33:22;8.80;;;4.32;;
57573;SDS011;63722;48.858;21.906;2022-11-15T09:35:48;8.50;;;3.88;;
57573;SDS011;63722;48.858;21.906;2022-11-15T09:38:14;15.70;;;4.32;;
57573;SDS011;63722;48.858;21.906;2022-11-15T09:40:49;5.10;;;3.80;;
57573;SDS011;63722;48.858;21.906;2022-11-15T09:51:08;8.23;;;3.90;;
57573;SDS011;63722;48.858;21.906;2022-11-15T09:54:00;6.30;;;3.70;;
57573;SDS011;63722;48.858;21.906;2022-11-15T09:56:37;9.50;;;3.63;;
57573;SDS011;63722;48.858;21.906;2022-11-15T10:04:39;22.77;;;4.40;;
57573;SDS011;63722;48.858;21.906;2022-11-15T10:07:16;15.63;;;3.97;;
57573;SDS011;63722;48.858;21.906;2022-11-15T10:12:29;24.13;;;3.55;;
57573;SDS011;63722;48.858;21.906;2022-11-15T10:15:06;12.90;;;3.50;;
57573;SDS011;63722;48.858;21.906;2022-11-15T10:17:49;11.68;;;4.45;;
57573;SDS011;63722;48.858;21.906;2022-11-15T10:20:44;12.07;;;4.20;;
57573;SDS011;63722;48.858;21.906;2022-11-15T10:23:13;9.18;;;3.70;;
57573;SDS011;63722;48.858;21.906;2022-11-15T10:25:41;10.77;;;3.90;;
57573;SDS011;63722;48.858;21.906;2022-11-15T10:30:48;7.15;;;3.85;;
57573;SDS011;63722;48.858;21.906;2022-11-15T10:46:32;5.28;;;3.47;;
57573;SDS011;63722;48.858;21.906;2022-11-15T10:49:20;12.82;;;3.40;;
57573;SDS011;63722;48.858;21.906;2022-11-15T10:51:53;12.38;;;3.88;;
57573;SDS011;63722;48.858;21.906;2022-11-15T10:54:25;6.80;;;3.42;;
57573;SDS011;63722;48.858;21.906;2022-11-15T10:56:59;13.75;;;3.20;;
57573;SDS011;63722;48.858;21.906;2022-11-15T10:59:30;11.15;;;3.60;;
57573;SDS011;63722;48.858;21.906;2022-11-15T11:01:58;5.53;;;3.20;;
57573;SDS011;63722;48.858;21.906;2022-11-15T11:04:24;8.75;;;3.42;;
57573;SDS011;63722;48.858;21.906;2022-11-15T11:06:53;5.95;;;3.40;;
57573;SDS011;63722;48.858;21.906;2022-11-15T11:09:28;4.85;;;3.17;;
57573;SDS011;63722;48.858;21.906;2022-11-15T11:11:57;5.45;;;3.22;;
57573;SDS011;63722;48.858;21.906;2022-11-15T11:14:24;6.50;;;3.33;;
57573;SDS011;63722;48.858;21.906;2022-11-15T11:23:02;9.20;;;3.70;;
57573;SDS011;63722;48.858;21.906;2022-11-15T11:38:49;12.13;;;3.67;;
57573;SDS011;63722;48.858;21.906;2022-11-15T11:47:32;11.23;;;3.47;;
57573;SDS011;63722;48.858;21.906;2022-11-15T11:53:03;8.30;;;3.05;;
57573;SDS011;63722;48.858;21.906;2022-11-15T11:55:37;8.68;;;3.53;;
57573;SDS011;63722;48.858;21.906;2022-11-15T11:58:21;8.50;;;3.58;;
57573;SDS011;63722;48.858;21.906;2022-11-15T12:01:11;7.68;;;3.20;;
57573;SDS011;63722;48.858;21.906;2022-11-15T12:06:44;8.10;;;3.13;;
57573;SDS011;63722;48.858;21.906;2022-11-15T12:14:31;11.30;;;9.32;;
57573;SDS011;63722;48.858;21.906;2022-11-15T12:17:01;10.50;;;6.00;;
57573;SDS011;63722;48.858;21.906;2022-11-15T12:19:26;5.93;;;5.15;;
57573;SDS011;63722;48.858;21.906;2022-11-15T12:25:44;6.57;;;4.72;;
57573;SDS011;63722;48.858;21.906;2022-11-15T12:27:41;8.73;;;4.93;;
57573;SDS011;63722;48.858;21.906;2022-11-15T12:30:16;12.70;;;4.65;;
57573;SDS011;63722;48.858;21.906;2022-11-15T12:32:54;12.60;;;5.05;;
57573;SDS011;63722;48.858;21.906;2022-11-15T12:35:26;9.70;;;4.82;;
57573;SDS011;63722;48.858;21.906;2022-11-15T12:37:52;5.25;;;4.07;;
57573;SDS011;63722;48.858;21.906;2022-11-15T12:40:24;5.45;;;4.22;;
57573;SDS011;63722;48.858;21.906;2022-11-15T12:42:59;8.55;;;4.03;;
57573;SDS011;63722;48.858;21.906;2022-11-15T13:06:44;3.75;;;3.40;;
57573;SDS011;63722;48.858;21.906;2022-11-15T13:12:08;4.50;;;4.03;;
57573;SDS011;63722;48.858;21.906;2022-11-15T13:14:42;7.00;;;3.42;;
57573;SDS011;63722;48.858;21.906;2022-11-15T13:19:48;6.22;;;3.47;;
57573;SDS011;63722;48.858;21.906;2022-11-15T13:22:18;5.93;;;3.70;;
57573;SDS011;63722;48.858;21.906;2022-11-15T13:25:02;4.22;;;3.80;;
57573;SDS011;63722;48.858;21.906;2022-11-15T13:27:28;5.85;;;3.47;;
57573;SDS011;63722;48.858;21.906;2022-11-15T13:29:54;12.18;;;3.33;;
57573;SDS011;63722;48.858;21.906;2022-11-15T13:32:19;5.15;;;3.50;;
57573;SDS011;63722;48.858;21.906;2022-11-15T13:34:47;5.53;;;3.45;;
57573;SDS011;63722;48.858;21.906;2022-11-15T13:39:45;5.20;;;3.95;;
57573;SDS011;63722;48.858;21.906;2022-11-15T13:42:19;4.15;;;2.97;;
57573;SDS011;63722;48.858;21.906;2022-11-15T13:44:56;3.97;;;3.15;;
57573;SDS011;63722;48.858;21.906;2022-11-15T13:47:24;5.63;;;3.22;;
57573;SDS011;63722;48.858;21.906;2022-11-15T13:49:57;7.75;;;3.17;;
57573;SDS011;63722;48.858;21.906;2022-11-15T13:52:25;3.40;;;3.10;;
57573;SDS011;63722;48.858;21.906;2022-11-15T13:55:04;3.40;;;3.10;;
57573;SDS011;63722;48.858;21.906;2022-11-15T14:03:05;3.20;;;2.90;;
57573;SDS011;63722;48.858;21.906;2022-11-15T14:05:39;4.65;;;3.10;;
57573;SDS011;63722;48.858;21.906;2022-11-15T14:08:22;5.72;;;3.35;;
57573;SDS011;63722;48.858;21.906;2022-11-15T14:10:48;6.28;;;3.40;;
57573;SDS011;63722;48.858;21.906;2022-11-15T14:13:31;6.60;;;3.47;;
57573;SDS011;63722;48.858;21.906;2022-11-15T14:16:13;5.18;;;3.63;;
57573;SDS011;63722;48.858;21.906;2022-11-15T14:18:47;5.28;;;3.45;;
57573;SDS011;63722;48.858;21.906;2022-11-15T14:21:18;3.90;;;3.30;;
57573;SDS011;63722;48.858;21.906;2022-11-15T14:23:44;5.35;;;3.30;;
57573;SDS011;63722;48.858;21.906;2022-11-15T14:26:26;4.40;;;3.15;;
57573;SDS011;63722;48.858;21.906;2022-11-15T14:28:53;4.32;;;3.30;;
57573;SDS011;63722;48.858;21.906;2022-11-15T14:31:19;2.90;;;2.70;;
57573;SDS011;63722;48.858;21.906;2022-11-15T14:33:45;4.75;;;3.03;;
57573;SDS011;63722;48.858;21.906;2022-11-15T14:36:20;3.33;;;2.92;;
57573;SDS011;63722;48.858;21.906;2022-11-15T14:38:46;4.00;;;3.15;;
57573;SDS011;63722;48.858;21.906;2022-11-15T14:41:21;3.92;;;3.42;;
57573;SDS011;63722;48.858;21.906;2022-11-15T14:43:49;5.15;;;3.20;;
57573;SDS011;63722;48.858;21.906;2022-11-15T14:46:15;13.10;;;3.40;;
57573;SDS011;63722;48.858;21.906;2022-11-15T14:48:41;6.20;;;3.63;;
57573;SDS011;63722;48.858;21.906;2022-11-15T14:51:14;7.72;;;3.33;;
57573;SDS011;63722;48.858;21.906;2022-11-15T14:53:42;3.47;;;3.17;;
57573;SDS011;63722;48.858;21.906;2022-11-15T14:56:08;6.93;;;3.15;;
57573;SDS011;63722;48.858;21.906;2022-11-15T14:58:33;9.32;;;3.35;;
57573;SDS011;63722;48.858;21.906;2022-11-15T15:00:59;3.60;;;3.05;;
57573;SDS011;63722;48.858;21.906;2022-11-15T15:03:24;4.55;;;3.05;;
57573;SDS011;63722;48.858;21.906;2022-11-15T15:05:50;7.32;;;3.00;;
57573;SDS011;63722;48.858;21.906;2022-11-15T15:08:15;5.28;;;2.88;;
57573;SDS011;63722;48.858;21.906;2022-11-15T15:10:42;3.53;;;2.83;;
57573;SDS011;63722;48.858;21.906;2022-11-15T15:13:16;4.93;;;3.00;;
57573;SDS011;63722;48.858;21.906;2022-11-15T15:15:46;3.22;;;2.97;;
57573;SDS011;63722;48.858;21.906;2022-11-15T15:18:13;5.20;;;3.10;;
57573;SDS011;63722;48.858;21.906;2022-11-15T15:20:39;9.27;;;2.90;;
57573;SDS011;63722;48.858;21.906;2022-11-15T15:23:10;8.10;;;2.88;;
57573;SDS011;63722;48.858;21.906;2022-11-15T15:25:43;3.20;;;2.88;;
57573;SDS011;63722;48.858;21.906;2022-11-15T15:28:10;3.35;;;3.00;;
57573;SDS011;63722;48.858;21.906;2022-11-15T15:30:36;4.80;;;3.05;;
57573;SDS011;63722;48.858;21.906;2022-11-15T15:33:02;3.22;;;2.78;;
57573;SDS011;63722;48.858;21.906;2022-11-15T15:35:29;2.92;;;2.72;;
57573;SDS011;63722;48.858;21.906;2022-11-15T15:37:56;2.97;;;2.70;;
57573;SDS011;63722;48.858;21.906;2022-11-15T15:40:22;3.85;;;3.28;;
57573;SDS011;63722;48.858;21.906;2022-11-15T15:42:49;5.40;;;3.03;;
57573;SDS011;63722;48.858;21.906;2022-11-15T15:45:15;3.03;;;2.80;;
57573;SDS011;63722;48.858;21.906;2022-11-15T15:47:41;4.38;;;2.80;;
57573;SDS011;63722;48.858;21.906;2022-11-15T15:50:16;3.10;;;2.88;;
57573;SDS011;63722;48.858;21.906;2022-11-15T15:52:47;3.33;;;3.13;;
57573;SDS011;63722;48.858;21.906;2022-11-15T15:55:12;3.00;;;2.72;;
57573;SDS011;63722;48.858;21.906;2022-11-15T15:57:37;3.58;;;3.00;;
57573;SDS011;63722;48.858;21.906;2022-11-15T16:00:03;3.92;;;2.85;;
57573;SDS011;63722;48.858;21.906;2022-11-15T16:02:29;3.17;;;2.97;;
57573;SDS011;63722;48.858;21.906;2022-11-15T16:04:55;3.03;;;2.83;;
57573;SDS011;63722;48.858;21.906;2022-11-15T16:07:21;3.17;;;2.88;;
57573;SDS011;63722;48.858;21.906;2022-11-15T16:09:48;3.45;;;2.65;;
57573;SDS011;63722;48.858;21.906;2022-11-15T16:12:30;5.00;;;2.70;;
57573;SDS011;63722;48.858;21.906;2022-11-15T16:14:59;2.90;;;2.70;;
57573;SDS011;63722;48.858;21.906;2022-11-15T16:17:26;5.07;;;2.78;;
57573;SDS011;63722;48.858;21.906;2022-11-15T16:19:55;5.90;;;2.97;;
57573;SDS011;63722;48.858;21.906;2022-11-15T16:22:20;2.88;;;2.67;;
57573;SDS011;63722;48.858;21.906;2022-11-15T16:24:46;3.50;;;3.25;;
57573;SDS011;63722;48.858;21.906;2022-11-15T16:27:12;3.05;;;2.75;;
57573;SDS011;63722;48.858;21.906;2022-11-15T16:29:39;3.20;;;2.63;;
57573;SDS011;63722;48.858;21.906;2022-11-15T16:32:05;3.22;;;2.95;;
57573;SDS011;63722;48.858;21.906;2022-11-15T16:34:30;5.30;;;3.05;;
57573;SDS011;63722;48.858;21.906;2022-11-15T16:36:55;5.15;;;2.97;;
57573;SDS011;63722;48.858;21.906;2022-11-15T16:39:21;2.72;;;2.45;;
57573;SDS011;63722;48.858;21.906;2022-11-15T16:41:47;6.43;;;2.80;;
57573;SDS011;63722;48.858;21.906;2022-11-15T16:44:13;3.80;;;3.10;;
57573;SDS011;63722;48.858;21.906;2022-11-15T16:46:40;8.38;;;3.20;;
57573;SDS011;63722;48.858;21.906;2022-11-15T16:49:08;2.88;;;2.67;;
57573;SDS011;63722;48.858;21.906;2022-11-15T16:51:38;5.00;;;2.60;;
57573;SDS011;63722;48.858;21.906;2022-11-15T16:54:05;2.95;;;2.72;;
57573;SDS011;63722;48.858;21.906;2022-11-15T16:56:31;4.07;;;3.05;;